Time;durP1;ratioP1;P1;durP2;ratioP2;P2;SDS_P1;SDS_P2;PMS_P1;PMS_P2;Temp;Humidity;BMP_temperature;BMP_pressure;BME280_temperature;BME280_humidity;BME280_pressure;Samples;Min_cycle;Max_cycle;Signal;HPM_P1;HPM_P2
2022/12/17 13:08:07;;;;;;;19.73;9.38;;;2.70;99.90;;;;;;5076965;28;20057;-61
2022/12/17 13:10:36;;;;;;;22.77;9.55;;;2.70;99.90;;;;;;5080112;28;20040;-61
2022/12/17 13:13:32;;;;;;;17.23;9.52;;;2.70;99.90;;;;;;5078835;28;20051;-60
2022/12/17 13:16:50;;;;;;;17.45;8.27;;;2.70;99.90;;;;;;5078237;28;20051;-60
2022/12/17 13:19:39;;;;;;;13.57;8.07;;;2.70;99.90;;;;;;5066687;28;20063;-59
2022/12/17 13:22:16;;;;;;;22.70;8.00;;;2.70;99.90;;;;;;5078208;28;20036;-60
2022/12/17 13:25:08;;;;;;;15.77;8.02;;;2.80;99.90;;;;;;5074961;28;20056;-60
2022/12/17 13:27:40;;;;;;;13.98;7.07;;;2.80;99.90;;;;;;5076586;28;20048;-60
2022/12/17 13:30:17;;;;;;;17.98;8.23;;;2.90;99.90;;;;;;5078935;28;20052;-60
2022/12/17 13:33:09;;;;;;;14.48;7.80;;;2.90;99.90;;;;;;5076809;28;20380;-61
2022/12/17 13:35:59;;;;;;;19.52;8.00;;;2.90;99.90;;;;;;5079892;28;20048;-61
2022/12/17 13:38:50;;;;;;;17.07;7.50;;;3.00;99.90;;;;;;5076655;28;20050;-62
2022/12/17 13:41:29;;;;;;;26.85;9.65;;;3.00;99.90;;;;;;5061070;28;20313;-61
2022/12/17 13:44:02;;;;;;;26.52;12.70;;;3.00;99.90;;;;;;5073718;28;20053;-61
2022/12/17 13:46:45;;;;;;;20.00;9.43;;;3.00;99.90;;;;;;5086089;28;20048;-60
2022/12/17 13:49:23;;;;;;;16.90;8.88;;;3.00;99.90;;;;;;5077156;28;20509;-60
2022/12/17 13:52:17;;;;;;;15.90;7.93;;;3.00;99.90;;;;;;5081451;28;20035;-60
2022/12/17 13:54:45;;;;;;;16.20;7.40;;;3.00;99.90;;;;;;5076769;28;20048;-61
2022/12/17 13:57:15;;;;;;;14.23;6.53;;;3.00;99.90;;;;;;5082057;28;20048;-61
2022/12/17 13:59:55;;;;;;;16.65;8.02;;;3.00;99.90;;;;;;5076834;28;20036;-60
2022/12/17 14:02:31;;;;;;;18.02;7.88;;;3.00;99.90;;;;;;5075980;28;20117;-60
2022/12/17 14:05:37;;;;;;;15.52;7.80;;;3.00;99.90;;;;;;5065101;28;20028;-60
2022/12/17 14:08:05;;;;;;;13.05;6.53;;;3.00;99.90;;;;;;5078537;28;20047;-60
2022/12/17 14:10:36;;;;;;;15.45;6.70;;;3.00;99.90;;;;;;5071530;28;20524;-59
2022/12/17 14:13:17;;;;;;;14.18;6.68;;;3.00;99.90;;;;;;5082518;28;20834;-61
2022/12/17 14:15:48;;;;;;;13.73;7.03;;;3.10;99.90;;;;;;5075219;28;20549;-61
2022/12/17 14:18:19;;;;;;;11.70;6.70;;;3.00;99.90;;;;;;5070045;28;20490;-60
2022/12/17 14:20:53;;;;;;;12.25;6.97;;;3.10;99.90;;;;;;5067904;28;20048;-60
2022/12/17 14:23:30;;;;;;;18.90;7.60;;;3.10;99.90;;;;;;5073441;28;20066;-60
2022/12/17 14:25:59;;;;;;;304.98;61.05;;;3.10;99.90;;;;;;5076146;28;20480;-60
2022/12/17 14:28:31;;;;;;;45.03;14.10;;;3.10;99.90;;;;;;5084473;28;20055;-60
2022/12/17 14:31:21;;;;;;;20.60;8.68;;;3.10;99.90;;;;;;5087753;28;20040;-61
2022/12/17 14:34:09;;;;;;;19.75;7.32;;;3.20;99.90;;;;;;5086390;28;20395;-60
2022/12/17 14:36:42;;;;;;;13.48;6.25;;;3.30;99.90;;;;;;5087966;28;20044;-61
2022/12/17 14:39:24;;;;;;;13.18;6.95;;;3.30;99.90;;;;;;5085388;28;20047;-61
2022/12/17 14:42:28;;;;;;;14.65;8.20;;;3.30;99.90;;;;;;5081423;28;20051;-60
2022/12/17 14:45:05;;;;;;;15.75;6.53;;;3.30;99.90;;;;;;5078280;28;20051;-61
2022/12/17 14:47:35;;;;;;;12.48;6.30;;;3.30;99.90;;;;;;5083364;28;20059;-60
2022/12/17 14:50:03;;;;;;;;;;;3.30;99.90;;;;;;5086486;28;20047;-60
2022/12/17 14:52:44;;;;;;;12.73;6.80;;;3.30;99.90;;;;;;5086056;28;19935;-61
2022/12/17 14:55:28;;;;;;;13.00;6.95;;;3.30;99.90;;;;;;5086141;28;20060;-60
2022/12/17 14:58:28;;;;;;;18.40;6.32;;;3.30;99.90;;;;;;5074576;28;20036;-60
2022/12/17 15:01:06;;;;;;;11.48;6.22;;;3.30;99.90;;;;;;5061481;28;20040;-60
2022/12/17 15:03:44;;;;;;;12.57;7.55;;;3.20;99.90;;;;;;5086016;28;20035;-62
2022/12/17 15:06:20;;;;;;;13.75;6.75;;;3.20;99.90;;;;;;5071659;28;20044;-60
2022/12/17 15:08:52;;;;;;;14.63;7.70;;;3.20;99.90;;;;;;5078718;28;20051;-61
2022/12/17 15:11:24;;;;;;;23.17;10.80;;;3.20;99.90;;;;;;5078179;28;20073;-60
2022/12/17 15:13:54;;;;;;;19.48;8.90;;;3.30;99.90;;;;;;5075688;28;20048;-61
2022/12/17 15:16:26;;;;;;;16.13;6.32;;;3.30;99.90;;;;;;5079903;28;20043;-62
2022/12/17 15:18:57;;;;;;;18.70;6.72;;;3.30;99.90;;;;;;5079208;28;20071;-60
2022/12/17 15:21:25;;;;;;;14.40;6.82;;;3.30;99.90;;;;;;5079940;28;20044;-62
2022/12/17 15:24:00;;;;;;;23.17;7.82;;;3.30;99.90;;;;;;5080958;28;20503;-60
2022/12/17 15:26:30;;;;;;;17.50;7.18;;;3.30;99.90;;;;;;5072134;28;20047;-61
2022/12/17 15:28:58;;;;;;;17.55;7.30;;;3.30;99.90;;;;;;5071698;28;20040;-61
2022/12/17 15:31:32;;;;;;;11.02;6.50;;;3.30;99.90;;;;;;5076581;28;20422;-60
2022/12/17 15:34:02;;;;;;;12.52;7.18;;;3.30;99.90;;;;;;5072438;28;20044;-60
2022/12/17 15:36:31;;;;;;;21.13;7.80;;;3.30;99.90;;;;;;5079167;28;20060;-61
2022/12/17 15:38:59;;;;;;;16.33;6.80;;;3.30;99.90;;;;;;5079038;28;20048;-60
2022/12/17 15:44:17;;;;;;;13.27;6.53;;;3.30;99.90;;;;;;5079734;28;20064;-63
2022/12/17 15:46:47;;;;;;;12.45;5.95;;;3.30;99.90;;;;;;5072487;28;20553;-61
2022/12/17 15:49:20;;;;;;;13.57;6.82;;;3.30;99.90;;;;;;5085245;28;20044;-60
2022/12/17 15:51:48;;;;;;;13.40;6.38;;;3.20;99.90;;;;;;5090870;28;20055;-60
2022/12/17 15:54:19;;;;;;;20.70;7.28;;;3.30;99.90;;;;;;5086384;28;20055;-60
2022/12/17 15:56:57;;;;;;;16.80;8.13;;;3.30;99.90;;;;;;5087946;28;20051;-60
2022/12/17 15:59:24;;;;;;;14.88;7.82;;;3.30;99.90;;;;;;5079317;28;20060;-61
2022/12/17 16:01:55;;;;;;;12.23;7.55;;;3.30;99.90;;;;;;5087726;28;20260;-60
2022/12/17 16:04:23;;;;;;;18.92;7.30;;;3.20;99.90;;;;;;5084907;28;20075;-60
2022/12/17 16:06:52;;;;;;;12.88;6.55;;;3.20;99.90;;;;;;5087774;28;20881;-61
2022/12/17 16:09:23;;;;;;;17.40;7.03;;;3.30;99.90;;;;;;5086378;28;20040;-61
2022/12/17 16:11:55;;;;;;;13.77;7.35;;;3.30;99.90;;;;;;5082987;28;20048;-60
2022/12/17 16:14:23;;;;;;;23.80;7.15;;;3.20;99.90;;;;;;5080476;28;20059;-60
2022/12/17 16:16:52;;;;;;;14.95;6.30;;;3.20;99.90;;;;;;5081656;28;20056;-60
2022/12/17 16:19:22;;;;;;;15.52;7.10;;;3.20;99.90;;;;;;5080143;28;20059;-61
2022/12/17 16:21:50;;;;;;;19.27;9.15;;;3.20;99.90;;;;;;5078690;28;20044;-60
2022/12/17 16:24:19;;;;;;;59.85;21.73;;;3.20;99.90;;;;;;5080338;28;20048;-60
2022/12/17 16:26:46;;;;;;;16.75;8.48;;;3.20;99.90;;;;;;5087008;28;20059;-61
2022/12/17 16:29:14;;;;;;;23.42;10.10;;;3.20;99.90;;;;;;5086231;28;20044;-60
2022/12/17 16:31:45;;;;;;;11.63;6.60;;;3.10;99.90;;;;;;5075136;28;20440;-61
2022/12/17 16:34:12;;;;;;;20.02;8.98;;;3.20;99.90;;;;;;5076607;28;20500;-60
2022/12/17 16:36:41;;;;;;;12.20;6.03;;;3.20;99.90;;;;;;5077027;28;20071;-61
2022/12/17 16:39:15;;;;;;;13.18;7.45;;;3.20;99.90;;;;;;5083611;28;20055;-61
2022/12/17 16:41:43;;;;;;;16.38;7.13;;;3.20;99.90;;;;;;5078760;28;20399;-62
2022/12/17 16:44:11;;;;;;;12.20;6.63;;;3.10;99.90;;;;;;5087420;28;20484;-61
2022/12/17 16:46:41;;;;;;;14.48;8.30;;;3.10;99.90;;;;;;5087277;28;20049;-60
2022/12/17 16:49:17;;;;;;;12.52;7.88;;;3.10;99.90;;;;;;5081836;28;20036;-60
2022/12/17 16:51:52;;;;;;;14.20;6.38;;;3.10;99.90;;;;;;5070847;28;20047;-61
2022/12/17 16:54:23;;;;;;;15.50;6.70;;;3.10;99.90;;;;;;5072994;28;20055;-62
2022/12/17 16:56:51;;;;;;;21.25;7.40;;;3.10;99.90;;;;;;5071926;28;20059;-60
2022/12/17 16:59:22;;;;;;;15.45;7.03;;;3.10;99.90;;;;;;5078106;28;20036;-62
2022/12/17 17:01:53;;;;;;;13.88;6.68;;;3.10;99.90;;;;;;5077371;28;20054;-60
2022/12/17 17:04:23;;;;;;;12.68;6.43;;;3.10;99.90;;;;;;5080529;28;20051;-61
2022/12/17 17:07:00;;;;;;;14.10;5.93;;;3.10;99.90;;;;;;5082815;28;20047;-61
2022/12/17 17:09:31;;;;;;;13.52;5.90;;;3.20;99.90;;;;;;5081897;28;20048;-60
2022/12/17 17:12:02;;;;;;;15.85;7.63;;;3.10;99.90;;;;;;5071668;28;20048;-61
2022/12/17 17:14:34;;;;;;;12.32;6.68;;;3.10;99.90;;;;;;5074491;28;20040;-59
2022/12/17 17:17:02;;;;;;;12.32;6.63;;;3.10;99.90;;;;;;5070441;28;20051;-61
2022/12/17 17:19:32;;;;;;;15.20;6.38;;;3.00;99.90;;;;;;5079447;28;20119;-60
2022/12/17 17:22:03;;;;;;;15.50;6.75;;;3.00;99.90;;;;;;5073541;28;20055;-60
2022/12/17 17:24:34;;;;;;;16.15;7.15;;;3.00;99.90;;;;;;5084085;28;20078;-61
2022/12/17 17:27:02;;;;;;;26.80;12.00;;;3.00;99.90;;;;;;5084841;28;20048;-61
2022/12/17 17:29:30;;;;;;;14.40;7.53;;;3.00;99.90;;;;;;5084521;28;20055;-60
2022/12/17 17:31:57;;;;;;;15.00;6.97;;;2.90;99.90;;;;;;5083465;28;20049;-60
2022/12/17 17:34:38;;;;;;;;;;;2.90;99.90;;;;;;5085704;28;20913;-61
2022/12/17 17:37:06;;;;;;;13.82;7.63;;;2.90;99.90;;;;;;5083422;28;19924;-61
2022/12/17 17:39:34;;;;;;;10.63;6.43;;;2.90;99.90;;;;;;5079042;28;20392;-62
2022/12/17 17:42:02;;;;;;;28.35;10.40;;;2.90;99.90;;;;;;5084077;28;20051;-60
2022/12/17 17:44:30;;;;;;;15.05;7.07;;;2.90;99.90;;;;;;5071801;28;20044;-61
2022/12/17 17:46:58;;;;;;;15.25;7.68;;;2.90;99.90;;;;;;5066167;28;20056;-61
2022/12/17 17:49:26;;;;;;;15.75;6.43;;;2.90;99.90;;;;;;5083215;28;20051;-60
2022/12/17 17:51:54;;;;;;;12.82;6.15;;;2.90;99.90;;;;;;5076811;28;20055;-62
2022/12/17 17:54:39;;;;;;;14.30;6.35;;;2.90;99.90;;;;;;5083722;28;20036;-60
2022/12/17 17:57:25;;;;;;;22.77;9.63;;;2.90;99.90;;;;;;5081559;28;20043;-60
2022/12/17 17:59:54;;;;;;;16.13;7.45;;;3.00;99.90;;;;;;5081152;28;20063;-61
2022/12/17 18:02:22;;;;;;;13.48;6.78;;;3.00;99.90;;;;;;5077703;28;20036;-60
2022/12/17 18:04:51;;;;;;;8.68;6.07;;;3.00;99.90;;;;;;5077202;28;20041;-61
2022/12/17 18:07:19;;;;;;;21.65;5.75;;;3.10;99.90;;;;;;5080274;28;20048;-61
2022/12/17 18:09:55;;;;;;;12.23;5.13;;;3.10;99.90;;;;;;5083698;28;20043;-61
2022/12/17 18:15:12;;;;;;;27.48;10.40;;;3.10;99.90;;;;;;5084854;28;20110;-61
2022/12/17 18:17:49;;;;;;;14.27;6.63;;;3.10;99.90;;;;;;5070040;28;20127;-60
2022/12/17 18:20:17;;;;;;;8.70;4.93;;;3.10;99.90;;;;;;5064947;28;20052;-60
2022/12/17 18:22:45;;;;;;;10.98;5.28;;;3.10;99.90;;;;;;5067252;28;20044;-60
2022/12/17 18:25:16;;;;;;;14.20;5.90;;;3.10;99.90;;;;;;5083303;28;20044;-61
2022/12/17 18:27:45;;;;;;;9.48;5.60;;;3.10;99.90;;;;;;5068079;28;20998;-60
2022/12/17 18:30:16;;;;;;;8.27;4.40;;;3.00;99.90;;;;;;5082522;28;20212;-61
2022/12/17 18:32:49;;;;;;;13.90;4.65;;;3.10;99.90;;;;;;5084986;28;20033;-60
2022/12/17 18:35:18;;;;;;;12.25;3.92;;;3.10;99.90;;;;;;5074265;28;20071;-60
2022/12/17 18:37:46;;;;;;;11.13;3.78;;;3.00;99.90;;;;;;5082716;28;20537;-60
2022/12/17 18:40:14;;;;;;;8.57;4.10;;;3.00;99.90;;;;;;5071524;28;20525;-60
2022/12/17 18:45:37;;;;;;;11.02;4.55;;;3.00;99.90;;;;;;5066996;28;20044;-61
2022/12/17 18:48:05;;;;;;;9.75;3.78;;;2.90;99.90;;;;;;5073649;28;20520;-60
2022/12/17 18:50:34;;;;;;;5.57;3.53;;;2.90;99.90;;;;;;5083357;28;20040;-60
2022/12/17 18:53:02;;;;;;;13.32;3.97;;;2.90;99.90;;;;;;5078812;28;20066;-60
2022/12/17 18:55:29;;;;;;;22.60;8.40;;;2.90;99.90;;;;;;5081907;28;20054;-61
2022/12/17 18:57:57;;;;;;;8.38;3.92;;;2.90;99.90;;;;;;5075494;28;20048;-60
2022/12/17 19:00:25;;;;;;;11.95;4.70;;;3.00;99.90;;;;;;5082507;28;20417;-61
2022/12/17 19:02:53;;;;;;;14.82;6.35;;;2.90;99.90;;;;;;5067923;28;20044;-60
2022/12/17 19:05:21;;;;;;;9.15;5.00;;;2.90;99.90;;;;;;5080266;28;20048;-60
2022/12/17 19:07:51;;;;;;;12.32;5.57;;;2.90;99.90;;;;;;5078035;28;20047;-61
2022/12/17 19:10:21;;;;;;;10.55;5.65;;;2.90;99.90;;;;;;5080371;28;20051;-60
2022/12/17 19:12:49;;;;;;;7.68;3.92;;;2.90;99.90;;;;;;5083261;28;20047;-60
2022/12/17 19:15:17;;;;;;;12.40;4.97;;;2.90;99.90;;;;;;5077592;28;20052;-61
2022/12/17 19:17:49;;;;;;;7.28;4.38;;;2.90;99.90;;;;;;5068618;28;20063;-60
2022/12/17 19:20:17;;;;;;;11.60;3.90;;;2.90;99.90;;;;;;5073690;28;20511;-60
2022/12/17 19:22:45;;;;;;;10.55;4.60;;;2.80;99.90;;;;;;5077352;28;20044;-61
2022/12/17 19:25:16;;;;;;;8.32;4.78;;;2.70;99.90;;;;;;5059861;28;20816;-60
2022/12/17 19:27:45;;;;;;;11.15;3.63;;;2.70;99.90;;;;;;5057153;28;20056;-62
2022/12/17 19:30:13;;;;;;;9.27;3.92;;;2.70;99.90;;;;;;5073476;28;20032;-60
2022/12/17 19:32:41;;;;;;;12.30;4.28;;;2.70;99.90;;;;;;5075706;28;20048;-60
2022/12/17 19:35:09;;;;;;;18.25;6.47;;;2.70;99.90;;;;;;5078851;28;20056;-61
2022/12/17 19:37:38;;;;;;;27.50;9.65;;;2.60;99.90;;;;;;5069903;28;20044;-61
2022/12/17 19:40:06;;;;;;;16.35;6.32;;;2.60;99.90;;;;;;5075941;28;20047;-61
2022/12/17 19:42:35;;;;;;;12.15;5.53;;;2.60;99.90;;;;;;5073149;28;20044;-61
2022/12/17 19:45:08;;;;;;;15.13;5.90;;;2.50;99.90;;;;;;5070629;28;20041;-61
2022/12/17 19:47:39;;;;;;;15.75;5.82;;;2.50;99.90;;;;;;5078189;28;20037;-60
2022/12/17 19:50:07;;;;;;;12.90;4.47;;;2.50;99.90;;;;;;5080961;28;20047;-61
2022/12/17 19:52:38;;;;;;;15.48;4.65;;;2.50;99.90;;;;;;5080603;28;20056;-60
2022/12/17 19:55:06;;;;;;;15.88;6.03;;;2.50;99.90;;;;;;5083949;28;20052;-62
2022/12/17 19:57:34;;;;;;;10.40;4.75;;;;;;;;;;5080616;28;20047;-60
2022/12/17 20:00:03;;;;;;;10.32;4.10;;;2.40;99.90;;;;;;5082696;28;20051;-61
2022/12/17 20:02:39;;;;;;;8.82;3.67;;;2.40;99.90;;;;;;5081010;28;20052;-61
2022/12/17 20:05:07;;;;;;;11.45;4.68;;;2.50;99.90;;;;;;5082512;28;20044;-61
2022/12/17 20:07:35;;;;;;;14.07;4.35;;;2.50;99.90;;;;;;5078072;28;20454;-61
2022/12/17 20:10:04;;;;;;;18.60;5.20;;;2.50;99.90;;;;;;5083022;28;20062;-62
2022/12/17 20:12:34;;;;;;;10.65;4.70;;;2.50;99.90;;;;;;5082510;28;20399;-60
2022/12/17 20:15:02;;;;;;;9.05;4.85;;;2.50;99.90;;;;;;5082160;28;20051;-61
2022/12/17 20:17:30;;;;;;;13.15;5.95;;;2.50;99.90;;;;;;5082543;28;20047;-61
2022/12/17 20:19:58;;;;;;;16.88;6.88;;;2.50;99.90;;;;;;5082511;28;20503;-60
2022/12/17 20:22:26;;;;;;;14.07;6.38;;;2.30;99.90;;;;;;5082410;28;20048;-60
2022/12/17 20:24:55;;;;;;;16.85;6.63;;;;;;;;;;5082902;28;20075;-61
2022/12/17 20:27:23;;;;;;;14.55;5.55;;;2.20;99.90;;;;;;5080756;28;20035;-60
2022/12/17 20:29:51;;;;;;;12.45;4.95;;;2.20;99.90;;;;;;5083779;28;20105;-61
2022/12/17 20:32:20;;;;;;;16.10;7.32;;;2.10;99.90;;;;;;5085746;28;20240;-60
2022/12/17 20:34:48;;;;;;;13.00;6.05;;;2.00;99.90;;;;;;5084621;28;20412;-61
2022/12/17 20:37:16;;;;;;;18.23;7.15;;;2.00;99.90;;;;;;5085980;28;20043;-61
2022/12/17 20:39:43;;;;;;;13.00;5.78;;;2.00;99.90;;;;;;5086400;28;20385;-61
2022/12/17 20:42:11;;;;;;;20.05;6.28;;;1.90;99.90;;;;;;5084556;28;20401;-60
2022/12/17 20:44:40;;;;;;;18.00;6.60;;;2.00;99.90;;;;;;5084419;28;20043;-61
2022/12/17 20:47:09;;;;;;;19.75;6.32;;;2.00;99.90;;;;;;5084795;28;20056;-59
2022/12/17 20:49:36;;;;;;;23.08;8.25;;;1.90;99.90;;;;;;5083348;28;20039;-60
2022/12/17 20:52:04;;;;;;;13.38;6.22;;;2.00;99.90;;;;;;5083184;28;20052;-60
2022/12/17 20:54:33;;;;;;;13.50;5.88;;;2.00;99.90;;;;;;5085457;28;20036;-60
2022/12/17 20:57:01;;;;;;;20.83;7.30;;;2.00;99.90;;;;;;5084587;28;20295;-60
2022/12/17 20:59:29;;;;;;;16.80;8.38;;;2.00;99.90;;;;;;5082168;28;20062;-61
2022/12/17 21:01:57;;;;;;;18.95;8.90;;;2.00;99.90;;;;;;5084754;28;20392;-60
2022/12/17 21:04:26;;;;;;;19.67;8.25;;;;;;;;;;5083230;28;21917;-61
2022/12/17 21:06:56;;;;;;;19.00;8.55;;;2.00;99.90;;;;;;5084732;28;20484;-61
2022/12/17 21:09:24;;;;;;;17.92;7.93;;;2.00;99.90;;;;;;5066302;28;20059;-60
2022/12/17 21:11:52;;;;;;;20.27;9.10;;;1.90;99.90;;;;;;5084233;28;20051;-60
2022/12/17 21:14:20;;;;;;;21.23;8.07;;;1.90;99.90;;;;;;5083072;28;20040;-60
2022/12/17 21:16:50;;;;;;;19.92;8.55;;;1.90;99.90;;;;;;5084429;28;20075;-60
2022/12/17 21:19:19;;;;;;;14.63;7.43;;;1.90;99.90;;;;;;5081793;28;20051;-60
2022/12/17 21:21:47;;;;;;;17.25;7.90;;;1.90;99.90;;;;;;5082695;28;20059;-61
2022/12/17 21:24:15;;;;;;;22.27;7.80;;;1.80;99.90;;;;;;5075592;28;20050;-61
2022/12/17 21:26:44;;;;;;;17.50;8.02;;;1.80;99.90;;;;;;5079819;28;20043;-60
2022/12/17 21:29:13;;;;;;;16.38;8.18;;;1.70;99.90;;;;;;5078845;28;20051;-61
2022/12/17 21:31:44;;;;;;;13.65;6.72;;;1.70;99.90;;;;;;5078917;28;20407;-59
2022/12/17 21:34:20;;;;;;;16.15;7.85;;;1.70;99.90;;;;;;5080676;28;20051;-62
2022/12/17 21:36:51;;;;;;;15.52;8.23;;;1.60;99.90;;;;;;5075378;28;20052;-60
2022/12/17 21:39:20;;;;;;;21.20;9.50;;;1.50;99.90;;;;;;5082918;28;20036;-61
2022/12/17 21:44:35;;;;;;;15.38;8.70;;;1.50;99.90;;;;;;5081910;28;20542;-61
2022/12/17 21:47:03;;;;;;;18.60;9.07;;;1.50;99.90;;;;;;5079140;28;20048;-61
2022/12/17 21:49:31;;;;;;;17.00;8.07;;;1.50;99.90;;;;;;5071464;28;20056;-61
2022/12/17 21:52:02;;;;;;;15.25;8.25;;;1.40;99.90;;;;;;5069481;28;20047;-61
2022/12/17 21:54:30;;;;;;;15.93;8.50;;;1.40;99.90;;;;;;5073644;28;20407;-61
2022/12/17 21:56:58;;;;;;;20.88;8.35;;;1.40;99.90;;;;;;5075210;28;20044;-60
2022/12/17 21:59:26;;;;;;;13.38;7.00;;;1.40;99.90;;;;;;5074452;28;20043;-61
2022/12/17 22:01:55;;;;;;;17.10;8.75;;;1.40;99.90;;;;;;5082777;28;20055;-61
2022/12/17 22:04:25;;;;;;;12.63;7.55;;;1.30;99.90;;;;;;5082141;28;20044;-61
2022/12/17 22:06:56;;;;;;;22.45;8.15;;;1.30;99.90;;;;;;5075060;28;20045;-61
2022/12/17 22:09:38;;;;;;;16.45;7.38;;;1.30;99.90;;;;;;5075166;28;20047;-60
2022/12/17 22:15:12;;;;;;;20.05;9.23;;;1.20;99.90;;;;;;5075921;28;20051;-60
2022/12/17 22:17:41;;;;;;;23.70;9.32;;;1.10;99.90;;;;;;5073363;28;20040;-61
2022/12/17 22:20:18;;;;;;;20.70;10.02;;;1.10;99.90;;;;;;5080879;28;20354;-61
2022/12/17 22:22:46;;;;;;;16.73;9.20;;;1.00;99.90;;;;;;5068945;28;20060;-61
2022/12/17 22:25:17;;;;;;;27.73;11.10;;;;;;;;;;5091461;28;20040;-60
2022/12/17 22:27:45;;;;;;;26.95;10.40;;;0.90;99.90;;;;;;5075607;28;20059;-60
2022/12/17 22:33:24;;;;;;;20.20;9.05;;;0.80;99.90;;;;;;5011741;28;20049;-61
2022/12/17 22:36:13;;;;;;;20.60;9.27;;;0.80;99.90;;;;;;5015796;28;20436;-60
2022/12/17 22:39:03;;;;;;;23.50;9.55;;;0.70;99.90;;;;;;5068523;28;20052;-60
2022/12/17 22:45:03;;;;;;;18.83;8.65;;;0.70;99.90;;;;;;5075660;28;20400;-61
2022/12/17 22:47:37;;;;;;;20.90;8.35;;;0.70;99.90;;;;;;5079965;28;20070;-62
2022/12/17 22:50:05;;;;;;;14.77;7.68;;;0.60;99.90;;;;;;5073309;28;20049;-61
2022/12/17 22:52:33;;;;;;;18.38;7.78;;;0.60;99.90;;;;;;5082179;28;20052;-60
2022/12/17 22:55:01;;;;;;;24.15;9.10;;;0.60;99.90;;;;;;5071481;28;20048;-60
2022/12/17 22:57:29;;;;;;;32.50;8.85;;;0.60;99.90;;;;;;5084579;28;20044;-61
2022/12/17 23:00:16;;;;;;;18.65;8.57;;;0.50;99.90;;;;;;5074200;28;20044;-61
2022/12/17 23:02:43;;;;;;;17.30;7.00;;;0.50;99.90;;;;;;5074328;28;20048;-59
2022/12/17 23:05:11;;;;;;;14.57;7.22;;;2.60;99.90;;;;;;5081644;28;20487;-60
2022/12/17 23:07:39;;;;;;;17.17;7.18;;;0.60;99.90;;;;;;5067953;28;20498;-61
2022/12/17 23:10:08;;;;;;;22.52;8.55;;;0.50;99.90;;;;;;5074995;28;20388;-61
2022/12/17 23:12:51;;;;;;;12.05;7.07;;;0.50;99.90;;;;;;5080340;28;20036;-60
2022/12/17 23:15:35;;;;;;;15.50;6.68;;;0.50;99.90;;;;;;5079839;28;20051;-61
2022/12/17 23:18:05;;;;;;;15.73;6.50;;;0.50;99.90;;;;;;5083672;28;20088;-60
2022/12/17 23:20:34;;;;;;;17.00;6.68;;;0.50;99.90;;;;;;5080087;28;20376;-60
2022/12/17 23:23:02;;;;;;;13.00;6.38;;;0.40;99.90;;;;;;5080396;28;20044;-61
2022/12/17 23:25:30;;;;;;;14.40;6.68;;;0.50;99.90;;;;;;5083698;28;20051;-61
2022/12/17 23:27:58;;;;;;;11.20;5.93;;;0.40;99.90;;;;;;5081707;28;20048;-62
2022/12/17 23:30:25;;;;;;;14.02;6.07;;;0.50;99.90;;;;;;5081425;28;20044;-60
2022/12/17 23:32:53;;;;;;;11.77;5.72;;;0.50;99.90;;;;;;5083536;28;20048;-60
2022/12/17 23:35:21;;;;;;;11.00;5.10;;;0.50;99.90;;;;;;5075002;28;20055;-60
2022/12/17 23:37:48;;;;;;;9.77;5.22;;;0.50;99.90;;;;;;5069244;28;20051;-61
2022/12/17 23:40:16;;;;;;;11.90;5.10;;;0.60;99.90;;;;;;5075427;28;20036;-61
2022/12/17 23:42:44;;;;;;;9.32;4.50;;;0.50;99.90;;;;;;5083786;28;20059;-62
2022/12/17 23:45:12;;;;;;;10.77;4.20;;;0.50;99.90;;;;;;5084284;28;20063;-60
2022/12/17 23:47:40;;;;;;;16.00;4.85;;;0.60;99.90;;;;;;5078654;28;20071;-61
2022/12/17 23:50:10;;;;;;;9.00;4.57;;;0.60;99.90;;;;;;5081547;28;20056;-60
2022/12/17 23:52:38;;;;;;;11.30;4.75;;;0.60;99.90;;;;;;5080981;28;20036;-61
2022/12/17 23:55:07;;;;;;;9.63;4.70;;;0.60;99.90;;;;;;5081037;28;20395;-61
2022/12/17 23:57:34;;;;;;;9.93;4.77;;;0.60;99.90;;;;;;5082358;28;20040;-60
